Hurleton, California
Current Conditions -  °F | °C
As of 11:53 AM on Thursday 30 Oct 2014 (Local Time) from KOVE Reporting Station
Clear Clear  
Wind Chill: 72°   Ceiling: Unl
Heat Index: 72°   Visibility: 10mi
Dew Point: 49°   Wind: 7mph
Humidity: 44%   Direction: 180°S
Pressure: 29.95"   Gusts: NA
Location:  39.5324°N, 121.648°W
Report Text: KOVE 301853Z AUTO 18006KT 10SM CLR 22/09 A2995 RMK AO2 SLP143 T02220094
Loading
Personal Weather Stations






























Interactive Weather Map
Tropical Storm Tracking
New forecast layout! Learn more

10-Day Weather Forecast

Advertisements
Track Severe Weather on mobile